If you wish to contribute or participate in the discussions about articles you are invited to join SKYbrary as a registered user

 Actions

La Rochelle-Île de Ré Airport

From SKYbrary Wiki

LFBH
Airport
ICAO: LFBH – IATA: LRH
Summary
Name La Rochelle-Île de Ré Airport
Region Europe
Territory France FR.gif
Location , Poitou-Charentes
Serving La Rochelle
Elevation 22.555 m
74 ft
74 ft22.555 m
Type medium airport
Coordinates 46° 10' 45.12" N, 1° 11' 43.01" W
Runways
Designator Length Width Surface ROPS
10/28 2255 m7,398.294 ft
45 m147.638 ft
ASP /


METAR
Observation LFBH 110900Z AUTO 25006KT 9999 FEW041 OVC240 08/07 Q1016 TEMPO SHRA BKN020TCU BECMG 33010KT
Station La Rochelle
Date/Time 11 December 2019 09:00:00
Wind direction 250°
Wind speed 06 kts
Lowest cloud amount few clouds
Temperature 8°C
Dew point 7°C
Humidity 93%
QNH 1016 hPa
Weather condition n/a